KTVI/TVI METAR and TAF weather

Enter ICAO airport designator
Station Type Date Time Source
KTVI METAR 2020/03/29 14:35 UTC NOAA

KTVI 291435Z AUTO 27005KT 7SM OVC018 24/20 A3018 RMK AO2


Station Type Date Time Source
KTVI Decoded METAR 2020/03/29 14:35 UTC NOAA

Thomasville, GA, United States (KTVI) 30-54-06N 083-52-53W
Mar 29, 2020 - 10:35 AM EDT / 2020.03.29 1435 UTC
Wind: from the W (270 degrees) at 6 MPH (5 KT):0
Visibility: 7 mile(s):0
Sky conditions: overcast
Temperature: 75 F (24 C)
Dew Point: 68 F (20 C)
Relative Humidity: 78%
Pressure (altimeter): 30.18 in. Hg (1022 hPa)
ob: KTVI 291435Z AUTO 27005KT 7SM OVC018 24/20 A3018 RMK AO2
cycle: 14

Station Type Date Time Source
KTVI TAF UTC NOAA

Error!

Example: see airport list